Buoy 62909

sailwx.info

Track history (hours):
 
Tides and Currents Weather Stations Pressure Air Temp Water Temp Dewpoint Dewpoint Depression Visibility Wind Speed Wind Dir Waves Ship Positions

Drifting buoy 62909

Last reported at 2014-Oct-08 10:02 UTC. Time now 2014-Oct-23 00:43 UTC.
Position N 26°39' W 081°59'.
Warning: this ship's position is 14 days out of date.

Water temperature 25.2 ° C

Date/timePositionNaut miles runAvg speedWind from/ knotsBaromVisibWave heightAir tempDewpointWater temp
2014-Oct-08 10:02N 26°39' W 081°59'0 0.0 25.2
2014-Oct-08 07:55N 26°39' W 081°59'0 0.0 25.4
2014-Oct-08 02:31N 26°39' W 081°59'0 0.0 25.6
2014-Oct-07 21:40N 26°39' W 081°59'0 0.0 26.0
2014-Oct-07 19:33N 26°39' W 081°59'0 0.0 27.9
2014-Oct-07 17:51N 26°39' W 081°59'0 0.4 32.5
2014-Oct-07 16:57N 26°39' W 081°58'0 0.0 32.2
2014-Oct-07 16:10N 26°39' W 081°58'0 0.9 32.2
2014-Oct-07 16:06N 26°39' W 081°58'0 0.0 32.2
2014-Oct-06 18:03N 26°39' W 081°59'0 0.1 32.1
2014-Oct-06 15:41N 26°39' W 081°58'   30.6
2014-Oct-02 16:57N 26°39' W 081°59'0 0.0 36.5
2014-Oct-02 16:13N 26°39' W 081°59'0 2.5
2014-Oct-02 16:10N 26°39' W 081°59'0 0.1 35.7
2014-Oct-02 15:24N 26°39' W 081°59'0 0.0 34.9
2014-Oct-02 15:19N 26°39' W 081°59'   34.9
Track history (hours):
 
Tides and Currents Weather Stations Pressure Air Temp Water Temp Dewpoint Dewpoint Depression Visibility Wind Speed Wind Dir Waves Ship Positions

Drifting buoy 62909

Last reported at 2014-Oct-08 10:02 UTC. Time now 2014-Oct-23 00:43 UTC.
Position N 26°39' W 081°59'.
Warning: this ship's position is 14 days out of date.

Water temperature 25.2 ° C

Date/timePositionNaut miles runAvg speedWind from/ knotsBaromVisibWave heightAir tempDewpointWater temp
2014-Oct-08 10:02N 26°39' W 081°59'0 0.0 25.2
2014-Oct-08 07:55N 26°39' W 081°59'0 0.0 25.4
2014-Oct-08 02:31N 26°39' W 081°59'0 0.0 25.6
2014-Oct-07 21:40N 26°39' W 081°59'0 0.0 26.0
2014-Oct-07 19:33N 26°39' W 081°59'0 0.0 27.9
2014-Oct-07 17:51N 26°39' W 081°59'0 0.4 32.5
2014-Oct-07 16:57N 26°39' W 081°58'0 0.0 32.2
2014-Oct-07 16:10N 26°39' W 081°58'0 0.9 32.2
2014-Oct-07 16:06N 26°39' W 081°58'0 0.0 32.2
2014-Oct-06 18:03N 26°39' W 081°59'0 0.1 32.1
2014-Oct-06 15:41N 26°39' W 081°58'   30.6
2014-Oct-02 16:57N 26°39' W 081°59'0 0.0 36.5
2014-Oct-02 16:13N 26°39' W 081°59'0 2.5
2014-Oct-02 16:10N 26°39' W 081°59'0 0.1 35.7
2014-Oct-02 15:24N 26°39' W 081°59'0 0.0 34.9
2014-Oct-02 15:19N 26°39' W 081°59'   34.9

Dump ship's entire track history